Terminal Aerodrome Forecast
Issued by NWS Shreveport, LA

Home | Current Version | Previous Version | Text Only | Print | Product List | Glossary On
Versions: 1 2 3 4 5 6 7 8 9 10 11 12 13 14 15 16 17 18 19 20
946
FTUS44 KSHV 230520
TAFELD
TAF
KELD 230520Z 2306/2406 21009KT P6SM VCSH BKN006 BKN017 OVC029
     FM231500 20012G18KT 6SM SHRA BKN015 OVC025
     FM231800 21010KT P6SM VCSH BKN035
     FM232100 19008KT P6SM VCTS OVC025CB
     FM240300 03004KT 4SM BR OVC050=

USA.gov is the U.S. government's official web portal to all federal, state and local government web resources and services.